Time;durP1;ratioP1;P1;durP2;ratioP2;P2;SDS_P1;SDS_P2;PMS_P1;PMS_P2;Temp;Humidity;BMP_temperature;BMP_pressure;BME280_temperature;BME280_humidity;BME280_pressure;Samples;Min_cycle;Max_cycle;Signal;HPM_P1;HPM_P2
2021/10/02 00:47:36;;;;;;;30.30;18.60;;;;;;;7.60;81.50;99130.05;235323;1194;24046;-75
2021/10/02 00:52:38;;;;;;;26.80;18.90;;;;;;;7.67;82.13;99119.41;235243;1200;25035;-74
2021/10/02 00:57:41;;;;;;;30.90;19.40;;;;;;;7.69;82.00;99118.89;235765;1193;26321;-74
2021/10/02 01:02:51;;;;;;;30.00;18.80;;;;;;;7.64;81.94;99113.77;235681;1199;22417;-72
2021/10/02 01:08:04;;;;;;;29.40;19.40;;;;;;;7.61;81.84;99117.70;236088;1193;22452;-74
2021/10/02 01:13:12;;;;;;;31.50;20.80;;;;;;;7.64;82.32;99115.24;235850;1199;24037;-72
2021/10/02 01:18:16;;;;;;;32.30;20.50;;;;;;;7.73;82.56;99109.63;235839;1199;23976;-74
2021/10/02 01:23:53;;;;;;;31.30;20.00;;;;;;;7.80;82.33;99103.57;235858;1192;25236;-74
2021/10/02 01:29:00;;;;;;;35.50;20.40;;;;;;;7.95;82.31;99097.11;236198;1199;25116;-72
2021/10/02 01:50:01;;;;;;;21.50;15.60;;;;;;;8.20;81.92;99087.19;235048;1201;26001;-74
2021/10/02 01:55:06;;;;;;;19.20;13.80;;;;;;;8.22;81.96;99073.58;235508;1198;24069;-74
2021/10/02 02:00:11;;;;;;;21.60;14.30;;;;;;;8.28;81.93;99070.38;236364;1199;24026;-75
2021/10/02 02:05:17;;;;;;;19.10;14.40;;;;;;;8.37;82.30;99066.86;236150;1199;25127;-72
2021/10/02 02:10:22;;;;;;;18.50;13.00;;;;;;;8.43;82.33;99065.70;235434;1200;24526;-73
2021/10/02 02:15:31;;;;;;;21.10;13.70;;;;;;;8.47;82.34;99064.66;235733;1200;22411;-73
2021/10/02 02:20:52;;;;;;;19.00;14.60;;;;;;;8.51;82.11;99061.71;235958;1192;22524;-73
2021/10/02 02:26:15;;;;;;;22.10;15.10;;;;;;;8.49;81.82;99055.52;235718;1200;22580;-72
2021/10/02 02:31:18;;;;;;;25.80;16.00;;;;;;;8.46;81.81;99051.84;235549;1200;24156;-74
2021/10/02 02:36:22;;;;;;;22.40;14.80;;;;;;;8.44;81.75;99049.78;235541;1194;24085;-72
2021/10/02 02:41:24;;;;;;;20.50;14.60;;;;;;;8.39;81.72;99043.21;235462;1193;24106;-74
2021/10/02 02:46:33;;;;;;;20.70;15.10;;;;;;;8.32;81.69;99040.80;235477;1201;24603;-74
2021/10/02 02:51:50;;;;;;;22.30;14.30;;;;;;;8.25;81.85;99037.17;235307;1193;22412;-74
2021/10/02 02:56:59;;;;;;;21.90;14.40;;;;;;;8.14;81.55;99037.06;235141;1177;24129;-74
2021/10/02 03:02:04;;;;;;;18.70;14.50;;;;;;;8.05;81.77;99039.29;235132;1201;25048;-74
2021/10/02 03:07:10;;;;;;;18.00;13.50;;;;;;;8.03;82.09;99039.44;236020;1185;22443;-74
2021/10/02 03:12:27;;;;;;;20.70;12.90;;;;;;;8.01;82.17;99034.20;236014;1192;25159;-74
2021/10/02 03:17:36;;;;;;;19.00;13.60;;;;;;;8.05;82.23;99035.13;235518;1199;22424;-74
2021/10/02 03:22:54;;;;;;;21.20;13.60;;;;;;;8.14;82.29;99028.52;235551;1186;24123;-72
2021/10/02 03:28:03;;;;;;;19.40;12.60;;;;;;;8.21;82.33;99031.14;235291;1200;22430;-72
2021/10/02 03:33:06;;;;;;;19.10;13.20;;;;;;;8.28;82.34;99025.54;235471;1200;22547;-74
2021/10/02 03:38:09;;;;;;;21.70;13.00;;;;;;;8.32;82.23;99019.92;235140;1201;24078;-71
2021/10/02 03:43:12;;;;;;;18.20;12.70;;;;;;;8.32;82.33;99012.61;235428;1200;22459;-72
2021/10/02 03:48:15;;;;;;;16.60;12.80;;;;;;;8.30;82.49;99013.41;234929;1201;25170;-73
2021/10/02 03:53:18;;;;;;;15.40;11.00;;;;;;;8.23;82.57;99019.50;235339;1193;22460;-72
2021/10/02 03:58:20;;;;;;;17.70;11.70;;;;;;;8.15;82.57;99020.45;235678;1200;22471;-74
2021/10/02 04:03:23;;;;;;;19.50;12.50;;;;;;;8.11;82.83;99020.30;235581;1201;25231;-72
2021/10/02 04:08:26;;;;;;;18.40;12.70;;;;;;;8.02;82.65;99016.49;235344;1200;22529;-72
2021/10/02 04:13:28;;;;;;;17.80;12.40;;;;;;;7.92;82.55;99020.86;235389;1201;24040;-72
2021/10/02 04:18:34;;;;;;;22.10;14.00;;;;;;;7.80;82.50;99025.48;235413;1200;22466;-75
2021/10/02 04:23:39;;;;;;;17.20;13.10;;;;;;;7.74;82.48;99026.31;235470;1201;22506;-73
2021/10/02 04:28:43;;;;;;;19.30;12.90;;;;;;;7.69;82.85;99028.66;235930;1199;25100;-72
2021/10/02 04:33:46;;;;;;;19.30;13.50;;;;;;;7.62;82.58;99027.09;236086;1199;24037;-75
2021/10/02 04:38:48;;;;;;;22.40;13.70;;;;;;;7.49;82.56;99024.33;235823;1199;25239;-74
2021/10/02 04:43:51;;;;;;;19.50;13.40;;;;;;;7.41;82.67;99027.34;235962;1199;24711;-74
2021/10/02 04:48:58;;;;;;;19.00;12.80;;;;;;;7.35;82.86;99028.49;235203;1201;22546;-74
2021/10/02 04:54:00;;;;;;;17.20;11.70;;;;;;;7.33;82.86;99032.11;235440;1193;22562;-72
2021/10/02 04:59:11;;;;;;;21.50;14.00;;;;;;;7.31;83.05;99031.40;235433;1200;22477;-73
2021/10/02 05:04:15;;;;;;;21.80;14.00;;;;;;;7.28;82.99;99027.92;235824;1178;22432;-72
2021/10/02 05:09:17;;;;;;;22.40;13.90;;;;;;;7.28;83.02;99030.21;236099;1192;24591;-73
2021/10/02 05:14:21;;;;;;;21.30;13.20;;;;;;;7.30;83.23;99031.30;235885;1192;24120;-72
2021/10/02 05:19:24;;;;;;;20.70;14.20;;;;;;;7.32;83.17;99029.02;236082;1199;24078;-75
2021/10/02 05:24:27;;;;;;;23.80;14.70;;;;;;;7.36;83.46;99031.84;235967;1193;22456;-74
2021/10/02 05:29:29;;;;;;;23.20;15.30;;;;;;;7.45;83.49;99032.20;235291;1194;22449;-75
2021/10/02 05:34:31;;;;;;;22.50;16.10;;;;;;;7.57;83.65;99032.83;235040;1201;22490;-75
2021/10/02 05:39:34;;;;;;;24.10;16.10;;;;;;;7.71;83.98;99034.42;235317;1201;22445;-73
2021/10/02 05:44:37;;;;;;;23.30;15.70;;;;;;;7.84;83.79;99036.85;235638;1199;23999;-74
2021/10/02 05:49:41;;;;;;;21.00;15.10;;;;;;;7.97;83.73;99038.90;236215;1199;24111;-72
2021/10/02 05:54:44;;;;;;;20.30;14.40;;;;;;;8.10;83.54;99038.77;236287;1199;24043;-74
2021/10/02 05:59:46;;;;;;;21.80;13.60;;;;;;;8.19;83.44;99047.69;236177;1199;24737;-72
2021/10/02 06:04:49;;;;;;;18.40;13.60;;;;;;;8.31;83.43;99052.34;236066;1194;26239;-74
2021/10/02 06:09:51;;;;;;;20.10;13.70;;;;;;;8.42;83.29;99053.30;235652;1199;22466;-72
2021/10/02 06:14:53;;;;;;;20.50;14.50;;;;;;;8.61;83.50;99053.69;236029;1199;24504;-74
2021/10/02 06:19:56;;;;;;;22.10;16.40;;;;;;;8.78;83.47;99048.55;235756;1199;22438;-74
2021/10/02 06:24:58;;;;;;;22.00;14.00;;;;;;;8.96;83.57;99053.81;236008;1192;24094;-73
2021/10/02 06:30:01;;;;;;;20.50;14.50;;;;;;;9.12;83.53;99053.08;235610;1177;22432;-72
2021/10/02 06:35:05;;;;;;;27.30;19.30;;;;;;;9.36;83.86;99050.75;235837;1200;22429;-73
2021/10/02 06:40:08;;;;;;;32.90;23.60;;;;;;;9.63;83.97;99047.92;236070;1200;22445;-73
2021/10/02 06:45:10;;;;;;;29.90;19.00;;;;;;;9.85;83.72;99053.36;236003;1199;24067;-73
2021/10/02 06:50:13;;;;;;;25.30;17.20;;;;;;;10.13;83.56;99056.89;236200;1199;24943;-74
2021/10/02 06:55:16;;;;;;;27.90;17.50;;;;;;;10.45;83.87;99055.44;236189;1192;24084;-72
2021/10/02 07:00:19;;;;;;;28.40;18.50;;;;;;;10.76;83.52;99059.25;236046;1192;22436;-72
2021/10/02 07:05:35;;;;;;;28.50;17.70;;;;;;;11.09;83.54;99061.23;236337;1193;24060;-74
2021/10/02 07:10:51;;;;;;;22.90;15.00;;;;;;;11.46;83.48;99063.88;236582;1194;22439;-73
2021/10/02 07:15:54;;;;;;;19.50;13.50;;;;;;;11.81;83.27;99059.41;236072;1193;22929;-73
2021/10/02 07:20:56;;;;;;;20.00;13.50;;;;;;;12.12;82.77;99063.52;235917;1199;24903;-72
2021/10/02 07:26:00;;;;;;;15.90;11.40;;;;;;;12.37;82.56;99060.39;235655;1199;24035;-73
2021/10/02 07:31:02;;;;;;;14.70;11.20;;;;;;;12.63;82.00;99058.80;236115;1199;22453;-73
2021/10/02 07:36:05;;;;;;;17.30;12.80;;;;;;;12.85;81.27;99064.00;236150;1186;25147;-74
2021/10/02 07:41:10;;;;;;;14.00;10.70;;;;;;;13.05;80.77;99060.80;235854;1195;25343;-73
2021/10/02 07:46:15;;;;;;;17.20;12.70;;;;;;;13.18;80.04;99065.17;236235;1177;25286;-74
2021/10/02 07:51:19;;;;;;;17.00;12.30;;;;;;;13.36;79.98;99061.02;235789;1192;22447;-71
2021/10/02 07:56:21;;;;;;;17.00;11.70;;;;;;;13.54;79.60;99059.08;236199;1199;23060;-74
2021/10/02 08:01:26;;;;;;;17.30;11.50;;;;;;;13.72;79.13;99065.13;236184;1194;23953;-72
2021/10/02 08:06:34;;;;;;;14.10;11.10;;;;;;;13.83;78.30;99062.40;236503;1199;24075;-73
2021/10/02 08:11:37;;;;;;;17.20;12.30;;;;;;;13.97;78.24;99068.30;236720;1199;24019;-72
2021/10/02 08:16:46;;;;;;;16.80;11.50;;;;;;;14.18;77.87;99071.48;236415;1199;22484;-73
2021/10/02 08:21:50;;;;;;;15.70;11.80;;;;;;;14.34;76.35;99065.40;236123;1199;22429;-71
2021/10/02 08:26:53;;;;;;;16.30;11.00;;;;;;;14.48;75.71;99070.02;236077;1193;22562;-72
2021/10/02 08:31:55;;;;;;;12.90;10.20;;;;;;;14.67;76.05;99066.08;236393;1199;22478;-72
2021/10/02 08:36:59;;;;;;;13.20;9.80;;;;;;;14.92;75.02;99066.30;236136;1199;22438;-71
2021/10/02 08:42:03;;;;;;;11.30;8.30;;;;;;;15.14;75.01;99064.98;236197;1193;24862;-73
2021/10/02 08:47:06;;;;;;;12.90;9.70;;;;;;;15.34;73.76;99062.33;236187;1193;22464;-72
2021/10/02 08:52:09;;;;;;;12.50;8.50;;;;;;;15.52;72.70;99057.55;235828;1192;24094;-72
2021/10/02 08:57:16;;;;;;;10.70;7.60;;;;;;;15.71;72.18;99059.34;236069;1199;23164;-73
2021/10/02 09:02:19;;;;;;;8.80;7.30;;;;;;;15.85;69.91;99059.92;236376;1184;24029;-73
2021/10/02 09:07:23;;;;;;;10.60;7.70;;;;;;;15.94;68.93;99059.45;235982;1199;24140;-72
2021/10/02 09:12:26;;;;;;;11.10;8.10;;;;;;;16.01;67.56;99054.02;235917;1199;24113;-71
2021/10/02 09:17:31;;;;;;;8.90;7.40;;;;;;;16.07;66.87;99054.02;235891;1199;24101;-71
2021/10/02 09:22:34;;;;;;;8.40;7.30;;;;;;;16.13;66.76;99049.13;236259;1199;22474;-73
2021/10/02 09:27:37;;;;;;;8.70;7.60;;;;;;;16.23;65.28;99047.18;236095;1199;22742;-73
2021/10/02 09:32:43;;;;;;;13.80;7.70;;;;;;;16.33;65.04;99043.42;236008;1200;24188;-72
2021/10/02 09:37:54;;;;;;;7.30;6.50;;;;;;;16.45;64.02;99042.38;235968;1201;24022;-73
2021/10/02 09:43:00;;;;;;;9.60;7.60;;;;;;;16.55;63.12;99042.66;236141;1193;22423;-73
2021/10/02 09:48:06;;;;;;;9.70;7.50;;;;;;;16.65;63.00;99041.95;235924;1199;22506;-74
2021/10/02 09:53:12;;;;;;;12.70;7.60;;;;;;;16.75;61.23;99043.45;236137;1185;22461;-73
2021/10/02 09:58:27;;;;;;;11.40;7.90;;;;;;;16.80;60.25;99042.16;236152;1199;24095;-74
2021/10/02 10:03:59;;;;;;;9.70;7.40;;;;;;;16.94;61.09;99032.48;236375;1193;22580;-74
2021/10/02 10:09:12;;;;;;;11.10;7.20;;;;;;;17.13;60.55;99029.67;235720;1200;22702;-74
2021/10/02 10:14:20;;;;;;;10.30;7.70;;;;;;;17.23;59.06;99032.39;235984;1199;22826;-73
2021/10/02 10:19:29;;;;;;;9.80;7.50;;;;;;;17.31;58.85;99027.67;236220;1199;22558;-74
2021/10/02 10:24:35;;;;;;;11.60;7.70;;;;;;;17.43;58.16;99021.42;236445;1193;24075;-73
2021/10/02 10:29:43;;;;;;;10.40;7.10;;;;;;;17.52;58.17;99019.11;236162;1194;22424;-75
2021/10/02 10:34:46;;;;;;;12.30;7.10;;;;;;;17.64;57.83;99017.44;236257;1193;22457;-74
2021/10/02 10:39:59;;;;;;;9.40;6.90;;;;;;;17.74;57.87;99017.48;236065;1199;24082;-71
2021/10/02 10:45:02;;;;;;;7.70;6.50;;;;;;;17.83;55.98;99018.58;236225;1199;24029;-74
2021/10/02 10:50:05;;;;;;;9.30;6.80;;;;;;;17.85;55.61;99015.70;235812;1201;22545;-74
2021/10/02 10:55:17;;;;;;;8.80;6.30;;;;;;;17.87;54.36;99009.99;236360;1193;22468;-74
2021/10/02 11:00:32;;;;;;;7.90;6.60;;;;;;;17.91;53.48;99008.63;236863;1199;22448;-72
2021/10/02 11:05:46;;;;;;;9.80;6.60;;;;;;;18.00;55.28;99009.79;236489;1194;24041;-72
2021/10/02 11:10:54;;;;;;;10.40;6.80;;;;;;;18.14;55.29;98996.34;236038;1199;24138;-73
2021/10/02 11:16:35;;;;;;;8.20;6.60;;;;;;;18.27;54.12;98991.60;236194;1199;25004;-72
2021/10/02 11:22:26;;;;;;;9.20;6.50;;;;;;;18.35;53.45;98987.21;236210;1199;24093;-74
2021/10/02 11:27:34;;;;;;;7.10;5.90;;;;;;;18.39;53.10;98992.77;236040;1197;22425;-74
2021/10/02 11:32:37;;;;;;;10.30;8.10;;;;;;;18.46;52.77;98993.79;236470;1192;22565;-73
2021/10/02 11:37:40;;;;;;;6.50;5.70;;;;;;;18.51;52.60;98991.02;238957;1198;22433;-73
2021/10/02 11:43:15;;;;;;;6.70;5.70;;;;;;;18.58;51.01;98990.38;236949;1199;24104;-73
2021/10/02 11:48:37;;;;;;;8.00;6.40;;;;;;;18.60;52.73;98993.10;236154;1198;24093;-73
2021/10/02 11:53:44;;;;;;;7.20;6.50;;;;;;;18.75;52.67;98994.84;236207;1199;22463;-73
2021/10/02 11:58:50;;;;;;;7.80;6.20;;;;;;;18.91;53.28;98987.15;236442;1194;22908;-74
2021/10/02 12:04:05;;;;;;;8.70;5.60;;;;;;;18.98;51.78;98983.67;236506;1199;22495;-73
2021/10/02 12:09:14;;;;;;;7.20;5.70;;;;;;;18.97;51.95;98980.68;235743;1199;22582;-73
2021/10/02 12:14:22;;;;;;;8.70;6.00;;;;;;;19.01;51.43;98978.02;235399;1200;26554;-72
2021/10/02 12:19:28;;;;;;;7.40;5.30;;;;;;;19.05;51.46;98969.45;235970;1199;24041;-73
2021/10/02 12:24:36;;;;;;;7.70;6.40;;;;;;;19.06;50.59;98971.81;235781;1199;22488;-73
2021/10/02 12:29:50;;;;;;;8.50;6.50;;;;;;;19.08;51.75;98970.77;236090;1199;24204;-75
2021/10/02 12:35:00;;;;;;;8.60;6.60;;;;;;;19.00;50.78;98967.36;236258;1199;24054;-73
2021/10/02 12:40:09;;;;;;;6.20;5.60;;;;;;;18.89;51.76;98966.92;236541;1199;24089;-74
2021/10/02 12:45:17;;;;;;;8.50;5.90;;;;;;;18.84;51.86;98966.42;236289;1197;24072;-75
2021/10/02 12:50:28;;;;;;;6.10;5.40;;;;;;;18.68;51.09;98963.62;236395;1199;24057;-74
2021/10/02 12:55:38;;;;;;;6.30;5.10;;;;;;;18.51;51.90;98961.86;236190;1193;24032;-71
2021/10/02 13:00:40;;;;;;;7.80;5.90;;;;;;;18.36;52.06;98957.59;236731;1199;24054;-73
2021/10/02 13:05:43;;;;;;;5.90;5.20;;;;;;;18.29;52.76;98959.52;235835;1199;24060;-74
2021/10/02 13:10:47;;;;;;;6.70;5.20;;;;;;;18.23;52.34;98952.50;236014;1199;22428;-73
2021/10/02 13:15:54;;;;;;;6.10;5.00;;;;;;;18.25;51.98;98947.75;235858;1193;24046;-74
2021/10/02 13:20:59;;;;;;;6.60;5.60;;;;;;;18.29;51.50;98948.92;235789;1194;25139;-74
2021/10/02 13:26:06;;;;;;;6.80;5.20;;;;;;;18.33;52.10;98946.02;236079;1199;24064;-74
2021/10/02 13:31:16;;;;;;;6.20;5.00;;;;;;;18.45;51.66;98940.58;235790;1199;24054;-73
2021/10/02 13:36:29;;;;;;;9.30;5.40;;;;;;;18.55;51.25;98933.80;235952;1193;22428;-74
2021/10/02 13:41:31;;;;;;;8.70;4.90;;;;;;;18.65;51.73;98924.10;235875;1192;22425;-74
2021/10/02 13:46:40;;;;;;;6.70;5.00;;;;;;;18.68;50.33;98930.89;235867;1198;22427;-74
2021/10/02 13:51:43;;;;;;;7.00;5.30;;;;;;;18.63;50.07;98937.63;235428;1199;22592;-73
2021/10/02 13:56:46;;;;;;;7.00;5.10;;;;;;;18.49;50.46;98935.55;235610;1198;23974;-74
2021/10/02 14:01:48;;;;;;;5.20;4.70;;;;;;;18.50;51.17;98933.31;235663;1199;23161;-73
2021/10/02 14:06:51;;;;;;;5.50;4.70;;;;;;;18.59;51.44;98935.63;235635;1199;22522;-74
2021/10/02 14:11:54;;;;;;;5.80;4.60;;;;;;;18.64;51.10;98938.98;235960;1194;24028;-73
2021/10/02 14:16:57;;;;;;;6.80;5.10;;;;;;;18.65;51.22;98943.42;235613;1199;24133;-72
2021/10/02 14:22:00;;;;;;;6.10;4.90;;;;;;;18.64;50.33;98940.07;235568;1199;25342;-72
2021/10/02 14:27:02;;;;;;;6.20;4.60;;;;;;;18.57;49.48;98930.23;235631;1199;24088;-74
2021/10/02 14:32:05;;;;;;;5.90;4.70;;;;;;;18.50;50.40;98938.75;236044;1198;24175;-74
2021/10/02 14:37:08;;;;;;;5.90;4.30;;;;;;;18.40;49.97;98950.20;235496;1193;24165;-73
2021/10/02 14:42:11;;;;;;;6.80;5.10;;;;;;;18.34;50.31;98954.33;235319;1200;24062;-73
2021/10/02 14:47:15;;;;;;;5.60;4.60;;;;;;;18.29;50.81;98955.58;235281;1193;24098;-73
2021/10/02 14:52:19;;;;;;;5.20;4.70;;;;;;;18.25;51.02;98955.19;235414;1193;24036;-71
2021/10/02 14:57:23;;;;;;;6.60;4.40;;;;;;;18.20;50.74;98968.05;235747;1192;22424;-72
2021/10/02 15:02:27;;;;;;;6.00;4.30;;;;;;;18.16;50.76;98963.70;235384;1199;22544;-74
2021/10/02 15:07:30;;;;;;;7.60;5.40;;;;;;;18.12;50.67;98958.41;235801;1198;22478;-73
2021/10/02 15:12:35;;;;;;;7.30;5.30;;;;;;;18.07;50.32;98950.86;235366;1200;25299;-74
2021/10/02 15:17:39;;;;;;;6.50;5.00;;;;;;;17.98;50.53;98948.98;235779;1199;22480;-74
2021/10/02 15:22:46;;;;;;;5.80;4.90;;;;;;;17.86;50.81;98948.39;236197;1193;24184;-74
2021/10/02 15:28:08;;;;;;;8.10;5.70;;;;;;;17.71;50.93;98947.84;235754;1177;22460;-71
2021/10/02 15:33:34;;;;;;;6.70;5.70;;;;;;;17.50;51.35;98954.86;236109;1193;25267;-72
2021/10/02 15:38:37;;;;;;;13.10;6.00;;;;;;;17.30;51.85;98936.30;236328;1199;22486;-74
2021/10/02 15:43:40;;;;;;;9.30;5.90;;;;;;;17.09;52.21;98931.08;236020;1186;24045;-73
2021/10/02 15:48:43;;;;;;;10.00;6.10;;;;;;;16.88;52.39;98924.24;236325;1199;24056;-73
2021/10/02 15:53:47;;;;;;;9.90;6.40;;;;;;;16.67;52.76;98923.48;236372;1199;22435;-74
2021/10/02 15:58:52;;;;;;;7.40;5.60;;;;;;;16.48;53.19;98921.10;236306;1198;24206;-73
2021/10/02 16:04:10;;;;;;;9.60;7.30;;;;;;;16.27;53.67;98933.22;236006;1199;22443;-74
2021/10/02 16:09:15;;;;;;;9.10;6.40;;;;;;;16.01;54.02;98923.00;235680;1199;25054;-73
2021/10/02 16:14:22;;;;;;;8.60;6.20;;;;;;;15.73;54.21;98920.09;236266;1199;22657;-73
2021/10/02 16:19:24;;;;;;;9.50;5.80;;;;;;;15.47;54.41;98922.23;235639;1199;22562;-73
2021/10/02 16:24:28;;;;;;;8.00;5.80;;;;;;;15.29;54.77;98932.92;235465;1186;24322;-73
2021/10/02 16:29:31;;;;;;;7.70;6.30;;;;;;;15.10;55.10;98935.91;236330;1193;22443;-73
2021/10/02 16:34:34;;;;;;;10.40;6.70;;;;;;;14.87;55.53;98948.89;236258;1177;24062;-71
2021/10/02 16:39:37;;;;;;;9.80;6.50;;;;;;;14.65;56.03;98958.19;235711;1190;24111;-74
2021/10/02 16:44:40;;;;;;;10.50;6.40;;;;;;;14.40;56.67;98950.88;236241;1199;22450;-71
2021/10/02 16:49:42;;;;;;;8.30;6.40;;;;;;;14.20;57.20;98950.64;235779;1199;22670;-71
2021/10/02 16:54:44;;;;;;;11.00;7.30;;;;;;;14.05;57.59;98952.77;236176;1193;24162;-73
2021/10/02 16:59:47;;;;;;;11.40;6.90;;;;;;;13.90;57.71;98960.23;236066;1199;24053;-72
2021/10/02 17:04:49;;;;;;;10.10;6.60;;;;;;;13.75;58.16;98962.62;236146;1199;25244;-74
2021/10/02 17:09:52;;;;;;;12.70;8.50;;;;;;;13.62;58.61;98969.77;236201;1193;22466;-75
2021/10/02 17:14:54;;;;;;;14.50;9.90;;;;;;;13.52;59.07;98968.00;236115;1199;24457;-74
2021/10/02 17:19:56;;;;;;;14.90;10.80;;;;;;;13.45;59.27;98971.81;235940;1198;24022;-72
2021/10/02 17:25:17;;;;;;;15.70;10.00;;;;;;;13.34;59.39;98964.49;236259;1198;22441;-71
2021/10/02 17:30:40;;;;;;;14.50;10.10;;;;;;;13.17;59.86;98958.42;235796;1199;24040;-73
2021/10/02 17:35:43;;;;;;;27.10;14.10;;;;;;;13.00;60.12;98964.48;235961;1199;24093;-73
2021/10/02 17:40:46;;;;;;;23.20;15.10;;;;;;;12.84;60.55;98971.29;236462;1186;24065;-71
2021/10/02 17:45:57;;;;;;;27.40;16.60;;;;;;;12.71;61.12;98962.55;236254;1198;22427;-73
2021/10/02 17:51:08;;;;;;;26.90;15.70;;;;;;;12.60;61.65;98959.73;236063;1193;22475;-72
2021/10/02 17:56:11;;;;;;;24.10;14.80;;;;;;;12.52;62.01;98956.50;236060;1197;22390;-74
2021/10/02 18:01:16;;;;;;;24.60;15.30;;;;;;;12.39;62.36;98952.73;236238;1197;25048;-72
2021/10/02 18:06:32;;;;;;;21.90;15.10;;;;;;;12.27;62.75;98960.75;235274;1200;24073;-73
2021/10/02 18:11:54;;;;;;;25.90;15.30;;;;;;;12.15;62.93;98971.42;236145;1193;24056;-73
2021/10/02 18:16:58;;;;;;;22.10;13.90;;;;;;;12.08;63.19;98966.04;235866;1199;22473;-73
2021/10/02 18:22:04;;;;;;;24.90;15.50;;;;;;;12.04;63.39;98975.46;236036;1192;24041;-71
2021/10/02 18:27:14;;;;;;;27.90;16.50;;;;;;;11.99;63.56;98985.46;236102;1199;25042;-71
2021/10/02 18:32:18;;;;;;;27.60;17.50;;;;;;;11.97;64.24;98976.65;236171;1199;22587;-71
2021/10/02 18:37:22;;;;;;;31.30;18.00;;;;;;;11.91;64.42;98966.61;236381;1199;24589;-73
2021/10/02 18:42:25;;;;;;;32.00;19.90;;;;;;;11.85;64.49;98963.38;236321;1198;24582;-70
2021/10/02 18:47:28;;;;;;;32.10;18.00;;;;;;;11.77;64.79;98966.45;236160;1193;22971;-71
2021/10/02 18:52:30;;;;;;;35.60;21.50;;;;;;;11.70;65.12;98970.14;236073;1192;24044;-71
2021/10/02 18:57:33;;;;;;;34.80;21.60;;;;;;;11.64;65.40;98976.19;235910;1193;22492;-73
2021/10/02 19:02:35;;;;;;;38.10;22.40;;;;;;;11.58;65.96;98983.35;236133;1193;24063;-71
2021/10/02 19:07:38;;;;;;;33.30;20.30;;;;;;;11.52;66.16;98973.52;236096;1199;24040;-71
2021/10/02 19:12:42;;;;;;;32.30;19.40;;;;;;;11.39;66.40;98971.21;236392;1187;24031;-73
2021/10/02 19:17:46;;;;;;;34.40;20.90;;;;;;;11.30;66.55;98973.26;236186;1199;22455;-73
2021/10/02 19:22:49;;;;;;;39.00;24.20;;;;;;;11.26;66.93;98971.38;236290;1192;24133;-73
2021/10/02 19:27:52;;;;;;;40.20;24.60;;;;;;;11.24;67.23;98968.84;236333;1199;25222;-73
2021/10/02 19:32:56;;;;;;;43.00;26.10;;;;;;;11.20;67.44;98969.59;236307;1199;24034;-73
2021/10/02 19:37:59;;;;;;;35.50;23.00;;;;;;;11.13;67.41;98976.35;236000;1193;22446;-74
2021/10/02 19:43:01;;;;;;;43.40;24.40;;;;;;;11.07;67.64;98975.04;236341;1192;22587;-74
2021/10/02 19:48:06;;;;;;;49.40;29.30;;;;;;;11.04;68.19;98975.98;236065;1199;22558;-73
2021/10/02 19:53:09;;;;;;;44.80;28.20;;;;;;;11.00;68.40;98972.06;235897;1199;24164;-71
2021/10/02 19:58:12;;;;;;;50.90;30.40;;;;;;;10.89;68.35;98971.23;235395;1200;25212;-71
2021/10/02 20:03:14;;;;;;;51.60;30.20;;;;;;;10.79;68.72;98972.13;235291;1199;22428;-73
2021/10/02 20:08:18;;;;;;;57.20;32.10;;;;;;;10.71;68.82;98969.77;236149;1199;24178;-72
2021/10/02 20:13:20;;;;;;;65.30;38.20;;;;;;;10.67;69.16;98978.85;236063;1199;22540;-74
2021/10/02 20:18:25;;;;;;;67.80;37.30;;;;;;;10.66;69.73;98972.02;235484;1199;22459;-73
2021/10/02 20:23:28;;;;;;;61.80;35.30;;;;;;;10.64;69.73;98965.50;236151;1193;24056;-72
2021/10/02 20:28:40;;;;;;;70.20;36.90;;;;;;;10.61;69.89;98966.39;235325;1199;22528;-72
2021/10/02 20:34:01;;;;;;;65.10;37.80;;;;;;;10.57;70.08;98962.13;235712;1197;22431;-73
2021/10/02 20:39:05;;;;;;;67.80;38.90;;;;;;;10.54;70.14;98956.11;236213;1192;24092;-74
2021/10/02 20:44:09;;;;;;;58.50;34.40;;;;;;;10.49;70.12;98944.80;235953;1199;23688;-73
2021/10/02 20:49:12;;;;;;;63.10;34.40;;;;;;;10.43;70.43;98941.11;235865;1193;22876;-73
2021/10/02 20:54:15;;;;;;;56.40;31.90;;;;;;;10.39;70.54;98932.30;235626;1193;23979;-71
2021/10/02 20:59:18;;;;;;;48.90;28.30;;;;;;;10.35;70.83;98931.27;235762;1195;24081;-73
2021/10/02 21:04:22;;;;;;;39.90;23.20;;;;;;;10.30;70.93;98931.19;235786;1193;22451;-72
2021/10/02 21:09:26;;;;;;;41.00;23.50;;;;;;;10.22;70.98;98925.53;235697;1199;22464;-70
2021/10/02 21:14:30;;;;;;;43.60;24.20;;;;;;;10.16;71.30;98919.00;235499;1200;22443;-73
2021/10/02 21:19:33;;;;;;;38.90;24.40;;;;;;;10.17;71.57;98918.67;236086;1193;24105;-73
2021/10/02 21:24:35;;;;;;;37.20;21.40;;;;;;;10.14;71.56;98917.36;236007;1199;24095;-73
2021/10/02 21:29:41;;;;;;;36.00;20.40;;;;;;;10.09;71.65;98924.63;235596;1200;22444;-74
2021/10/02 21:34:46;;;;;;;36.50;23.10;;;;;;;10.07;71.81;98917.90;235895;1193;22457;-73
2021/10/02 21:39:50;;;;;;;37.20;21.60;;;;;;;10.06;71.96;98909.82;235981;1199;22446;-75
2021/10/02 21:44:52;;;;;;;38.90;20.60;;;;;;;10.04;71.98;98907.00;235492;1200;24577;-71
2021/10/02 21:49:55;;;;;;;33.40;19.80;;;;;;;10.02;72.12;98899.59;235219;1193;23972;-72
2021/10/02 21:54:58;;;;;;;35.80;20.10;;;;;;;9.98;72.11;98897.63;236069;1184;22461;-71
2021/10/02 22:00:07;;;;;;;32.80;20.00;;;;;;;9.95;72.54;98891.89;235663;1192;24012;-71
2021/10/02 22:05:18;;;;;;;32.00;17.30;;;;;;;9.93;72.64;98889.59;235378;1193;24152;-72
2021/10/02 22:10:21;;;;;;;28.50;17.10;;;;;;;9.90;72.80;98894.06;236038;1199;22442;-73
2021/10/02 22:15:25;;;;;;;26.30;17.90;;;;;;;9.89;72.77;98893.27;235199;1193;22445;-73
2021/10/02 22:20:28;;;;;;;29.90;18.60;;;;;;;9.84;72.88;98891.34;235524;1193;25067;-73
2021/10/02 22:25:32;;;;;;;29.20;16.40;;;;;;;9.78;72.87;98885.17;234876;1201;22459;-72
2021/10/02 22:30:35;;;;;;;25.90;16.60;;;;;;;9.73;72.88;98879.71;235285;1200;22451;-73
2021/10/02 22:35:39;;;;;;;28.80;16.60;;;;;;;9.71;73.01;98881.70;236202;1199;24192;-72
2021/10/02 22:40:42;;;;;;;31.20;19.00;;;;;;;9.64;73.09;98879.08;235795;1199;22426;-74
2021/10/02 22:45:45;;;;;;;27.90;16.50;;;;;;;9.57;73.08;98881.16;235821;1199;25270;-70
2021/10/02 22:50:49;;;;;;;28.30;15.30;;;;;;;9.55;73.35;98879.42;235822;1199;25377;-71
2021/10/02 22:56:14;;;;;;;26.10;16.80;;;;;;;9.58;73.63;98887.30;235872;1193;24051;-74
2021/10/02 23:01:21;;;;;;;26.10;16.10;;;;;;;9.56;73.71;98882.83;235478;1199;24047;-73
2021/10/02 23:06:25;;;;;;;27.00;15.00;;;;;;;9.54;73.82;98886.59;236099;1199;25051;-73
2021/10/02 23:11:29;;;;;;;23.60;14.40;;;;;;;9.53;73.96;98884.77;236211;1199;22450;-71
2021/10/02 23:16:38;;;;;;;26.30;14.50;;;;;;;9.51;73.91;98880.71;235695;1200;24834;-73
2021/10/02 23:21:43;;;;;;;21.10;13.90;;;;;;;9.50;74.07;98878.70;236048;1185;25184;-73
2021/10/02 23:26:45;;;;;;;24.30;13.70;;;;;;;9.47;74.08;98875.23;235660;1199;26127;-73
2021/10/02 23:31:49;;;;;;;19.70;12.70;;;;;;;9.47;74.07;98878.45;235831;1199;24122;-71
2021/10/02 23:36:52;;;;;;;18.80;12.90;;;;;;;9.48;74.40;98876.20;235787;1199;22443;-71
2021/10/02 23:41:55;;;;;;;22.30;13.60;;;;;;;9.49;74.50;98881.16;235760;1199;24069;-73
2021/10/02 23:46:58;;;;;;;17.80;11.50;;;;;;;9.49;74.55;98882.73;235962;1199;22462;-73
2021/10/02 23:52:14;;;;;;;16.90;11.20;;;;;;;9.46;74.45;98881.71;235680;1199;24044;-73
2021/10/02 23:57:31;;;;;;;21.20;12.10;;;;;;;9.44;74.43;98887.52;235569;1186;22496;-73
